createdAt,value
2022-08-19T00:00:59.979Z,23.13
2022-08-19T00:03:03.029Z,23.11
2022-08-19T00:05:07.044Z,23.09
2022-08-19T00:07:10.290Z,23.08
2022-08-19T00:09:17.395Z,23.08
2022-08-19T00:11:25.258Z,23.06
2022-08-19T00:13:30.138Z,23.07
2022-08-19T00:15:33.307Z,23.08
2022-08-19T00:17:36.338Z,23.07
2022-08-19T00:19:45.255Z,23.05
2022-08-19T00:21:48.634Z,23.06
2022-08-19T00:23:51.708Z,23.05
2022-08-19T00:25:56.274Z,23.05
2022-08-19T00:27:59.886Z,23.05
2022-08-19T00:30:04.358Z,23.04
2022-08-19T00:32:07.633Z,23.02
2022-08-19T00:34:14.141Z,23.02
2022-08-19T00:36:17.164Z,22.97
2022-08-19T00:38:29.610Z,22.96
2022-08-19T00:40:40.579Z,22.94
2022-08-19T00:42:45.983Z,22.92
2022-08-19T00:44:50.108Z,22.90
2022-08-19T00:46:58.382Z,22.85
2022-08-19T00:49:03.222Z,22.83
2022-08-19T00:51:07.169Z,22.81
2022-08-19T00:53:10.338Z,22.80
2022-08-19T00:55:19.604Z,22.80
2022-08-19T00:57:29.818Z,22.76
2022-08-19T00:59:58.830Z,22.74
2022-08-19T01:01:58.744Z,22.72
2022-08-19T01:04:01.822Z,22.71
2022-08-19T01:06:05.068Z,22.71
2022-08-19T01:08:08.412Z,22.70
2022-08-19T01:10:20.004Z,22.71
2022-08-19T01:12:23.253Z,22.72
2022-08-19T01:14:26.828Z,22.73
2022-08-19T01:16:32.282Z,22.75
2022-08-19T01:18:38.838Z,22.75
2022-08-19T01:20:42.638Z,22.76
2022-08-19T01:22:49.394Z,22.76
2022-08-19T01:24:52.856Z,22.76
2022-08-19T01:26:58.943Z,22.77
2022-08-19T01:29:02.642Z,22.75
2022-08-19T01:31:09.353Z,22.75
2022-08-19T01:33:12.629Z,22.76
2022-08-19T01:35:18.717Z,22.74
2022-08-19T01:37:24.986Z,22.70
2022-08-19T01:39:31.720Z,22.67
2022-08-19T01:41:34.965Z,22.65
2022-08-19T01:43:38.513Z,22.64
2022-08-19T01:46:01.568Z,22.62
2022-08-19T01:48:05.590Z,22.59
2022-08-19T01:50:11.738Z,22.57
2022-08-19T01:52:14.756Z,22.56
2022-08-19T01:54:23.074Z,22.55
2022-08-19T01:56:32.238Z,22.55
2022-08-19T01:58:40.369Z,22.55
2022-08-19T02:00:43.474Z,22.55
2022-08-19T02:02:46.789Z,22.53
2022-08-19T02:04:49.900Z,22.51
2022-08-19T02:06:53.046Z,22.49
2022-08-19T02:08:57.608Z,22.46
2022-08-19T02:11:01.190Z,22.43
2022-08-19T02:13:05.628Z,22.38
2022-08-19T02:15:09.294Z,22.35
2022-08-19T02:17:12.356Z,22.33
2022-08-19T02:19:16.068Z,22.32
2022-08-19T02:21:20.717Z,22.29
2022-08-19T02:25:26.573Z,22.28
2022-08-19T02:27:29.924Z,22.24
2022-08-19T02:29:35.296Z,22.20
2022-08-19T02:31:38.377Z,22.17
2022-08-19T02:33:41.403Z,22.15
2022-08-19T02:35:44.824Z,22.14
2022-08-19T02:38:05.542Z,22.14
2022-08-19T02:40:12.417Z,22.15
2022-08-19T02:42:15.904Z,22.16
2022-08-19T02:44:29.283Z,22.19
2022-08-19T02:46:36.703Z,22.20
2022-08-19T02:48:39.860Z,22.21
2022-08-19T02:50:53.183Z,22.22
2022-08-19T02:52:56.786Z,22.20
2022-08-19T02:55:00.055Z,22.14
2022-08-19T02:57:03.035Z,22.08
2022-08-19T02:59:12.483Z,22.06
2022-08-19T03:01:22.639Z,22.04
2022-08-19T03:03:27.660Z,22.02
2022-08-19T03:05:55.751Z,22.00
2022-08-19T03:07:54.047Z,22.00
2022-08-19T03:09:57.131Z,21.97
2022-08-19T03:12:00.436Z,21.94
2022-08-19T03:14:04.838Z,21.91
2022-08-19T03:16:08.033Z,21.87
2022-08-19T03:18:11.106Z,21.85
2022-08-19T03:20:17.593Z,21.82
2022-08-19T03:22:20.523Z,21.81
2022-08-19T03:24:24.143Z,21.80
2022-08-19T03:26:27.373Z,21.81
2022-08-19T03:28:30.582Z,21.81
2022-08-19T03:30:33.660Z,21.83
2022-08-19T03:32:36.684Z,21.85
2022-08-19T03:34:48.399Z,21.85
2022-08-19T03:36:52.814Z,21.86
2022-08-19T03:38:59.720Z,21.84
2022-08-19T03:41:08.824Z,21.83
2022-08-19T03:43:11.813Z,21.83
2022-08-19T03:45:14.939Z,21.85
2022-08-19T03:47:18.187Z,21.87
2022-08-19T03:49:27.076Z,21.90
2022-08-19T03:51:33.601Z,21.92
2022-08-19T03:53:38.027Z,21.94
2022-08-19T03:55:42.672Z,21.94
2022-08-19T03:57:46.734Z,21.95
2022-08-19T03:59:49.890Z,21.96
2022-08-19T04:01:53.507Z,21.96
2022-08-19T04:03:57.855Z,21.99
2022-08-19T04:06:00.885Z,21.99
2022-08-19T04:08:04.339Z,22.01
2022-08-19T04:10:10.598Z,22.02
2022-08-19T04:12:13.894Z,22.01
2022-08-19T04:14:23.956Z,22.02
2022-08-19T04:16:35.188Z,22.03
2022-08-19T04:18:40.103Z,22.03
2022-08-19T04:20:45.345Z,22.02
2022-08-19T04:22:48.477Z,22.04
2022-08-19T04:24:51.511Z,22.04
2022-08-19T04:26:56.097Z,22.05
2022-08-19T04:28:59.121Z,22.04
2022-08-19T04:31:02.213Z,22.04
2022-08-19T04:33:05.519Z,22.03
2022-08-19T04:35:17.444Z,22.03
2022-08-19T04:37:22.806Z,22.04
2022-08-19T04:39:48.170Z,22.04
2022-08-19T04:42:10.953Z,22.01
2022-08-19T04:44:19.039Z,21.99
2022-08-19T04:46:39.365Z,21.97
2022-08-19T04:48:44.586Z,21.95
2022-08-19T04:50:58.485Z,21.93
2022-08-19T04:53:01.720Z,21.94
2022-08-19T04:55:07.494Z,21.95
2022-08-19T04:57:11.539Z,21.95
2022-08-19T04:59:16.925Z,21.96
2022-08-19T05:01:22.060Z,21.97
2022-08-19T05:03:28.775Z,21.97
2022-08-19T05:05:44.677Z,21.98
2022-08-19T05:07:48.558Z,21.98
2022-08-19T05:09:57.841Z,22.00
2022-08-19T05:12:02.626Z,21.95
2022-08-19T05:14:05.968Z,21.91
2022-08-19T05:16:12.025Z,21.89
2022-08-19T05:18:32.511Z,21.88
2022-08-19T05:20:53.089Z,21.90
2022-08-19T05:22:56.243Z,21.88
2022-08-19T05:25:12.151Z,21.88
2022-08-19T05:27:15.979Z,21.86
2022-08-19T05:29:21.125Z,21.88
2022-08-19T05:31:26.816Z,21.88
2022-08-19T05:33:29.839Z,21.89
2022-08-19T05:35:34.764Z,21.90
2022-08-19T05:37:37.951Z,21.90
2022-08-19T05:39:41.350Z,21.91
2022-08-19T05:41:44.829Z,21.94
2022-08-19T05:43:49.282Z,21.93
2022-08-19T05:45:52.642Z,21.94
2022-08-19T05:47:57.117Z,21.96
2022-08-19T05:50:00.196Z,21.97
2022-08-19T05:52:05.378Z,21.99
2022-08-19T05:54:09.609Z,22.01
2022-08-19T05:56:15.664Z,22.02
2022-08-19T05:58:18.744Z,22.03
2022-08-19T06:00:31.567Z,22.05
2022-08-19T06:02:34.610Z,22.06
2022-08-19T06:04:40.365Z,22.06
2022-08-19T06:06:43.467Z,22.05
2022-08-19T06:08:51.650Z,22.06
2022-08-19T06:10:54.700Z,22.08
2022-08-19T06:12:57.673Z,22.07
2022-08-19T06:15:02.112Z,22.07
2022-08-19T06:17:07.221Z,22.08
2022-08-19T06:19:13.634Z,22.07
2022-08-19T06:21:18.000Z,22.08
2022-08-19T06:23:21.220Z,22.10
2022-08-19T06:25:30.470Z,22.10
2022-08-19T06:27:34.452Z,22.12
2022-08-19T06:29:37.690Z,22.14
2022-08-19T06:31:43.503Z,22.18
2022-08-19T06:33:47.521Z,22.23
2022-08-19T06:35:53.199Z,22.24
2022-08-19T06:37:57.965Z,22.25
2022-08-19T06:40:01.312Z,22.28
2022-08-19T06:42:07.952Z,22.31
2022-08-19T06:44:14.682Z,22.35
2022-08-19T06:46:19.733Z,22.40
2022-08-19T06:48:22.870Z,22.46
2022-08-19T06:50:29.358Z,22.55
2022-08-19T06:52:34.118Z,22.67
2022-08-19T06:54:55.814Z,22.77
2022-08-19T06:57:02.875Z,22.79
2022-08-19T06:59:07.730Z,22.80
2022-08-19T07:01:11.250Z,22.84
2022-08-19T07:03:14.575Z,22.84
2022-08-19T07:05:18.205Z,22.86
2022-08-19T07:07:23.359Z,22.87
2022-08-19T07:09:26.395Z,22.86
2022-08-19T07:11:31.868Z,22.88
2022-08-19T07:13:38.018Z,22.87
2022-08-19T07:15:41.364Z,22.83
2022-08-19T07:17:44.437Z,22.82
2022-08-19T07:19:48.030Z,22.79
2022-08-19T07:21:53.695Z,22.79
2022-08-19T07:23:57.392Z,22.80
2022-08-19T07:26:00.516Z,22.80
2022-08-19T07:28:05.352Z,22.82
2022-08-19T07:30:11.635Z,22.82
2022-08-19T07:32:15.377Z,22.80
2022-08-19T07:34:19.507Z,22.79
2022-08-19T07:36:25.320Z,22.78
2022-08-19T07:38:29.325Z,22.77
2022-08-19T07:40:32.927Z,22.76
2022-08-19T07:42:36.487Z,22.75
2022-08-19T07:46:53.220Z,22.74
2022-08-19T07:48:56.434Z,22.74
2022-08-19T07:51:02.743Z,22.73
2022-08-19T07:53:05.731Z,22.74
2022-08-19T07:55:40.228Z,22.75
2022-08-19T07:57:33.105Z,22.75
2022-08-19T07:59:36.166Z,22.71
2022-08-19T08:01:41.855Z,22.69
2022-08-19T08:04:07.991Z,22.69
2022-08-19T08:06:29.460Z,22.65
2022-08-19T08:08:51.073Z,22.65
2022-08-19T08:10:57.124Z,22.66
2022-08-19T08:13:09.209Z,22.65
2022-08-19T08:15:17.348Z,22.65
2022-08-19T08:17:31.188Z,22.65
2022-08-19T08:19:51.864Z,22.65
2022-08-19T08:21:59.063Z,22.62
2022-08-19T08:26:09.241Z,22.63
2022-08-19T08:28:17.606Z,22.62
2022-08-19T08:30:23.583Z,22.59
2022-08-19T08:32:28.592Z,22.60
2022-08-19T08:34:31.839Z,22.60
2022-08-19T08:36:35.303Z,22.59
2022-08-19T08:38:40.267Z,22.61
2022-08-19T08:40:49.505Z,22.61
2022-08-19T08:45:15.875Z,22.71
2022-08-19T08:47:21.221Z,22.75
2022-08-19T08:49:36.212Z,22.80
2022-08-19T08:53:51.694Z,22.86
2022-08-19T08:55:59.280Z,22.89
2022-08-19T08:58:05.549Z,22.91
2022-08-19T09:00:15.561Z,22.95
2022-08-19T09:02:19.209Z,22.96
2022-08-19T09:04:23.822Z,22.98
2022-08-19T09:06:33.589Z,23.02
2022-08-19T09:08:44.241Z,23.08
2022-08-19T09:10:54.987Z,23.11
2022-08-19T09:13:09.152Z,23.16
2022-08-19T09:15:15.004Z,23.19
2022-08-19T09:17:20.325Z,23.21
2022-08-19T09:19:23.711Z,23.23
2022-08-19T09:21:33.223Z,23.24
2022-08-19T09:23:36.590Z,23.26
2022-08-19T09:25:41.108Z,23.25
2022-08-19T09:27:46.421Z,23.23
2022-08-19T09:29:49.931Z,23.21
2022-08-19T09:31:53.361Z,23.23
2022-08-19T09:33:58.176Z,23.23
2022-08-19T09:36:08.447Z,23.22
2022-08-19T09:38:13.165Z,23.21
2022-08-19T09:40:16.348Z,23.20
2022-08-19T09:42:29.882Z,23.19
2022-08-19T09:44:34.701Z,23.18
2022-08-19T09:46:37.803Z,23.16
2022-08-19T09:48:41.764Z,23.15
2022-08-19T09:50:51.494Z,23.14
2022-08-19T09:52:57.554Z,23.14
2022-08-19T09:55:07.465Z,23.08
2022-08-19T09:57:11.426Z,23.05
2022-08-19T09:59:14.500Z,23.02
2022-08-19T10:01:20.353Z,23.02
2022-08-19T10:03:25.431Z,23.02
2022-08-19T10:05:55.164Z,23.04
2022-08-19T10:07:58.646Z,23.08
2022-08-19T10:10:03.091Z,23.09
2022-08-19T10:12:06.778Z,23.08
2022-08-19T10:14:14.660Z,23.09
2022-08-19T10:16:20.920Z,23.09
2022-08-19T10:18:25.415Z,23.10
2022-08-19T10:20:31.064Z,23.12
2022-08-19T10:22:36.649Z,23.13
2022-08-19T10:24:39.738Z,23.14
2022-08-19T10:26:49.046Z,23.16
2022-08-19T10:29:00.581Z,23.16
2022-08-19T10:31:07.330Z,23.14
2022-08-19T10:33:11.315Z,23.10
2022-08-19T10:35:16.214Z,23.07
2022-08-19T10:37:31.220Z,23.05
2022-08-19T10:39:43.297Z,23.03
2022-08-19T10:41:48.243Z,23.05
2022-08-19T10:43:55.435Z,23.05
2022-08-19T10:46:00.259Z,23.06
2022-08-19T10:48:03.407Z,23.05
2022-08-19T10:50:28.687Z,23.03
2022-08-19T10:52:38.783Z,22.99
2022-08-19T10:54:59.865Z,22.94
2022-08-19T10:57:09.898Z,22.92
2022-08-19T10:59:15.056Z,22.90
2022-08-19T11:01:18.248Z,22.86
2022-08-19T11:03:21.555Z,22.85
2022-08-19T11:05:24.731Z,22.81
2022-08-19T11:07:27.714Z,22.80
2022-08-19T11:09:34.404Z,22.79
2022-08-19T11:11:41.621Z,22.79
2022-08-19T11:13:47.433Z,22.79
2022-08-19T11:15:58.512Z,22.81
2022-08-19T11:18:01.608Z,22.82
2022-08-19T11:20:06.693Z,22.84
2022-08-19T11:22:11.349Z,22.84
2022-08-19T11:24:22.306Z,22.85
2022-08-19T11:26:25.768Z,22.88
2022-08-19T11:28:29.441Z,22.90
2022-08-19T11:30:34.222Z,22.91
2022-08-19T11:32:37.313Z,22.91
2022-08-19T11:34:40.625Z,22.92
2022-08-19T11:36:45.816Z,22.92
2022-08-19T11:38:49.866Z,22.91
2022-08-19T11:40:59.747Z,22.93
2022-08-19T11:43:02.773Z,22.94
2022-08-19T11:45:06.229Z,22.95
2022-08-19T11:47:10.620Z,22.96
2022-08-19T11:49:14.320Z,22.97
2022-08-19T11:51:20.756Z,22.97
2022-08-19T11:53:24.486Z,22.96
2022-08-19T11:55:27.566Z,22.99
2022-08-19T11:57:30.829Z,23.00
2022-08-19T11:59:33.979Z,23.02
2022-08-19T12:01:37.073Z,23.03
2022-08-19T12:03:41.729Z,23.04
2022-08-19T12:05:44.825Z,23.04
2022-08-19T12:07:48.035Z,23.05
2022-08-19T12:09:51.233Z,23.05
2022-08-19T12:11:55.261Z,23.05
2022-08-19T12:13:58.366Z,23.05
2022-08-19T12:16:01.505Z,23.06
2022-08-19T12:18:04.889Z,23.04
2022-08-19T12:20:11.801Z,23.04
2022-08-19T12:22:15.085Z,23.05
2022-08-19T12:24:21.462Z,23.07
2022-08-19T12:26:25.395Z,23.07
2022-08-19T12:28:28.610Z,23.09
2022-08-19T12:30:31.750Z,23.12
2022-08-19T12:32:35.287Z,23.17
2022-08-19T12:34:38.907Z,23.19
2022-08-19T12:36:43.380Z,23.21
2022-08-19T12:38:47.706Z,23.24
2022-08-19T12:40:55.100Z,23.24
2022-08-19T12:43:00.587Z,23.25
2022-08-19T12:45:03.628Z,23.23
2022-08-19T12:47:10.334Z,23.24
2022-08-19T12:49:27.372Z,23.22
2022-08-19T12:51:36.868Z,23.19
2022-08-19T12:53:41.879Z,23.20
2022-08-19T12:55:45.068Z,23.22
2022-08-19T12:57:49.441Z,23.23
2022-08-19T12:59:55.472Z,23.21
2022-08-19T13:01:58.734Z,23.23
2022-08-19T13:04:01.822Z,23.20
2022-08-19T13:06:05.121Z,23.21
2022-08-19T13:08:08.235Z,23.22
2022-08-19T13:10:16.336Z,23.23
2022-08-19T13:12:19.468Z,23.23
2022-08-19T13:14:28.025Z,23.26
2022-08-19T13:16:31.127Z,23.27
2022-08-19T13:18:34.271Z,23.30
2022-08-19T13:20:38.825Z,23.33
2022-08-19T13:22:42.145Z,23.37
2022-08-19T13:24:47.349Z,23.40
2022-08-19T13:26:51.969Z,23.45
2022-08-19T13:29:12.294Z,23.51
2022-08-19T13:31:34.944Z,23.56
2022-08-19T13:33:38.005Z,23.61
2022-08-19T13:35:42.685Z,23.68
2022-08-19T13:37:46.370Z,23.70
2022-08-19T13:39:49.743Z,23.72
2022-08-19T13:41:54.264Z,23.76
2022-08-19T13:43:57.369Z,23.81
2022-08-19T13:46:01.051Z,23.85
2022-08-19T13:48:08.045Z,23.85
2022-08-19T13:50:12.664Z,23.81
2022-08-19T13:52:15.941Z,23.82
2022-08-19T13:54:18.988Z,23.82
2022-08-19T13:56:26.095Z,23.84
2022-08-19T13:58:32.529Z,23.87
2022-08-19T14:00:39.767Z,23.89
2022-08-19T14:02:44.147Z,23.94
2022-08-19T14:04:47.249Z,23.95
2022-08-19T14:06:50.375Z,23.90
2022-08-19T14:08:53.898Z,23.92
2022-08-19T14:10:57.226Z,23.91
2022-08-19T14:13:02.392Z,23.92
2022-08-19T14:15:08.596Z,23.91
2022-08-19T14:17:11.634Z,23.87
2022-08-19T14:19:16.274Z,23.85
2022-08-19T14:21:22.055Z,23.84
2022-08-19T14:23:25.239Z,23.86
2022-08-19T14:25:30.611Z,23.89
2022-08-19T14:27:35.061Z,23.93
2022-08-19T14:29:38.651Z,23.94
2022-08-19T14:31:44.183Z,23.95
2022-08-19T14:33:48.290Z,23.96
2022-08-19T14:35:51.366Z,23.95
2022-08-19T14:38:03.752Z,23.98
2022-08-19T14:40:08.270Z,24.01
2022-08-19T14:42:11.741Z,24.03
2022-08-19T14:44:14.878Z,23.94
2022-08-19T14:46:20.774Z,23.93
2022-08-19T14:48:28.958Z,23.93
2022-08-19T14:50:32.663Z,23.95
2022-08-19T14:52:35.790Z,23.97
2022-08-19T14:54:38.765Z,23.96
2022-08-19T14:56:42.459Z,23.98
2022-08-19T14:58:46.041Z,23.97
2022-08-19T15:00:49.243Z,23.94
2022-08-19T15:02:52.929Z,23.92
2022-08-19T15:04:59.402Z,23.87
2022-08-19T15:07:05.355Z,23.80
2022-08-19T15:09:08.439Z,23.73
2022-08-19T15:11:12.507Z,23.67
2022-08-19T15:13:15.707Z,23.62
2022-08-19T15:15:19.215Z,23.52
2022-08-19T15:17:24.761Z,23.46
2022-08-19T15:19:45.591Z,23.38
2022-08-19T15:21:50.022Z,23.33
2022-08-19T15:23:53.999Z,23.27
2022-08-19T15:25:57.085Z,23.22
2022-08-19T15:28:01.771Z,23.17
2022-08-19T15:30:05.621Z,23.13
2022-08-19T15:32:09.740Z,23.08
2022-08-19T15:34:12.912Z,23.03
2022-08-19T15:36:16.723Z,22.99
2022-08-19T15:38:24.397Z,22.94
2022-08-19T15:40:28.427Z,22.90
2022-08-19T15:42:31.518Z,22.85
2022-08-19T15:44:34.956Z,22.77
2022-08-19T15:46:39.818Z,22.75
2022-08-19T15:48:42.935Z,22.72
2022-08-19T15:50:46.019Z,22.71
2022-08-19T15:52:52.109Z,22.71
2022-08-19T15:54:56.586Z,22.69
2022-08-19T15:57:17.265Z,22.69
2022-08-19T15:59:46.819Z,22.69
2022-08-19T16:02:10.460Z,22.69
2022-08-19T16:04:34.830Z,22.69
2022-08-19T16:06:39.983Z,22.68
2022-08-19T16:08:48.869Z,22.66
2022-08-19T16:10:53.760Z,22.66
2022-08-19T16:12:57.767Z,22.65
2022-08-19T16:15:01.392Z,22.66
2022-08-19T16:17:04.915Z,22.65
2022-08-19T16:19:11.905Z,22.65
2022-08-19T16:21:17.300Z,22.63
2022-08-19T16:23:20.353Z,22.62
2022-08-19T16:25:27.505Z,22.64
2022-08-19T16:27:32.433Z,22.65
2022-08-19T16:29:39.092Z,22.65
2022-08-19T16:31:46.044Z,22.65
2022-08-19T16:33:49.217Z,22.64
2022-08-19T16:36:00.461Z,22.64
2022-08-19T16:38:11.425Z,22.66
2022-08-19T16:40:14.640Z,22.66
2022-08-19T16:42:17.898Z,22.69
2022-08-19T16:44:22.778Z,22.66
2022-08-19T16:46:27.460Z,22.67
2022-08-19T16:48:32.999Z,22.68
2022-08-19T16:50:51.223Z,22.70
2022-08-19T16:52:54.251Z,22.70
2022-08-19T16:54:57.401Z,22.72
2022-08-19T16:57:00.478Z,22.71
2022-08-19T16:59:04.873Z,22.73
2022-08-19T17:01:11.351Z,22.76
2022-08-19T17:03:15.302Z,22.80
2022-08-19T17:05:18.839Z,22.82
2022-08-19T17:07:21.890Z,22.85
2022-08-19T17:09:26.239Z,22.85
2022-08-19T17:11:31.604Z,22.83
2022-08-19T17:13:35.022Z,22.82
2022-08-19T17:15:38.273Z,22.82
2022-08-19T17:17:42.651Z,22.82
2022-08-19T17:19:47.391Z,22.79
2022-08-19T17:21:50.441Z,22.81
2022-08-19T17:23:53.447Z,22.81
2022-08-19T17:25:56.915Z,22.81
2022-08-19T17:28:08.054Z,22.82
2022-08-19T17:30:11.681Z,22.82
2022-08-19T17:32:15.380Z,22.81
2022-08-19T17:34:19.795Z,22.83
2022-08-19T17:36:24.320Z,22.82
2022-08-19T17:38:27.973Z,22.82
2022-08-19T17:40:31.295Z,22.82
2022-08-19T17:42:35.938Z,22.84
2022-08-19T17:44:40.782Z,22.84
2022-08-19T17:46:45.105Z,22.83
2022-08-19T17:48:52.118Z,22.83
2022-08-19T17:50:57.308Z,22.81
2022-08-19T17:53:02.593Z,22.80
2022-08-19T17:55:06.562Z,22.80
2022-08-19T17:57:09.601Z,22.79
2022-08-19T17:59:14.508Z,22.78
2022-08-19T18:01:18.045Z,22.76
2022-08-19T18:03:30.312Z,22.74
2022-08-19T18:05:36.869Z,22.74
2022-08-19T18:07:42.388Z,22.72
2022-08-19T18:09:51.524Z,22.72
2022-08-19T18:11:56.986Z,22.71
2022-08-19T18:14:00.174Z,22.69
2022-08-19T18:16:03.397Z,22.67
2022-08-19T18:18:15.208Z,22.64
2022-08-19T18:20:19.711Z,22.61
2022-08-19T18:22:26.541Z,22.56
2022-08-19T18:24:31.056Z,22.51
2022-08-19T18:26:34.881Z,22.46
2022-08-19T18:28:49.440Z,22.42
2022-08-19T18:30:53.357Z,22.36
2022-08-19T18:32:56.392Z,22.32
2022-08-19T18:35:00.969Z,22.28
2022-08-19T18:37:04.078Z,22.23
2022-08-19T18:39:25.325Z,22.18
2022-08-19T18:41:51.513Z,22.12
2022-08-19T18:44:12.527Z,22.04
2022-08-19T18:46:33.132Z,21.98
2022-08-19T18:48:57.763Z,21.93
2022-08-19T18:51:02.455Z,21.91
2022-08-19T18:53:05.541Z,21.89
2022-08-19T18:55:11.960Z,21.86
2022-08-19T18:57:16.667Z,21.83
2022-08-19T18:59:19.999Z,21.81
2022-08-19T19:01:27.697Z,21.77
2022-08-19T19:03:30.720Z,21.76
2022-08-19T19:05:33.930Z,21.72
2022-08-19T19:07:37.086Z,21.67
2022-08-19T19:09:41.378Z,21.63
2022-08-19T19:11:46.851Z,21.60
2022-08-19T19:13:51.357Z,21.59
2022-08-19T19:15:54.418Z,21.58
2022-08-19T19:17:59.894Z,21.57
2022-08-19T19:20:04.553Z,21.55
2022-08-19T19:22:07.684Z,21.55
2022-08-19T19:24:14.107Z,21.54
2022-08-19T19:26:17.720Z,21.54
2022-08-19T19:28:25.418Z,21.54
2022-08-19T19:30:31.657Z,21.53
2022-08-19T19:32:39.225Z,21.51
2022-08-19T19:34:42.532Z,21.48
2022-08-19T19:36:45.778Z,21.45
2022-08-19T19:38:49.181Z,21.43
2022-08-19T19:40:52.245Z,21.42
2022-08-19T19:42:55.644Z,21.40
2022-08-19T19:44:58.669Z,21.40
2022-08-19T19:47:03.148Z,21.40
2022-08-19T19:49:07.131Z,21.41
2022-08-19T19:51:10.201Z,21.39
2022-08-19T19:53:15.096Z,21.38
2022-08-19T19:55:19.066Z,21.33
2022-08-19T19:57:23.833Z,21.29
2022-08-19T19:59:27.091Z,21.26
2022-08-19T20:01:30.715Z,21.25
2022-08-19T20:03:35.429Z,21.28
2022-08-19T20:05:38.586Z,21.30
2022-08-19T20:07:59.362Z,21.30
2022-08-19T20:10:02.712Z,21.30
2022-08-19T20:12:06.215Z,21.30
2022-08-19T20:14:12.664Z,21.29
2022-08-19T20:16:15.820Z,21.29
2022-08-19T20:18:18.932Z,21.27
2022-08-19T20:20:23.686Z,21.26
2022-08-19T20:22:26.947Z,21.26
2022-08-19T20:24:32.609Z,21.27
2022-08-19T20:26:35.765Z,21.25
2022-08-19T20:28:47.420Z,21.23
2022-08-19T20:30:57.084Z,21.19
2022-08-19T20:33:04.655Z,21.20
2022-08-19T20:35:09.045Z,21.20
2022-08-19T20:37:13.543Z,21.22
2022-08-19T20:39:16.622Z,21.22
2022-08-19T20:41:20.277Z,21.21
2022-08-19T20:43:23.294Z,21.20
2022-08-19T20:45:32.178Z,21.18
2022-08-19T20:47:36.649Z,21.16
2022-08-19T20:49:39.775Z,21.16
2022-08-19T20:51:44.456Z,21.18
2022-08-19T20:53:49.217Z,21.15
2022-08-19T20:55:52.354Z,21.16
2022-08-19T20:57:56.502Z,21.15
2022-08-19T20:59:59.913Z,21.17
2022-08-19T21:02:02.976Z,21.17
2022-08-19T21:04:06.131Z,21.16
2022-08-19T21:06:09.519Z,21.18
2022-08-19T21:08:18.216Z,21.18
2022-08-19T21:10:22.715Z,21.12
2022-08-19T21:12:27.006Z,21.10
2022-08-19T21:14:30.941Z,21.11
2022-08-19T21:16:34.112Z,21.11
2022-08-19T21:18:37.242Z,21.09
2022-08-19T21:20:41.304Z,21.08
2022-08-19T21:22:44.457Z,21.08
2022-08-19T21:24:47.558Z,21.08
2022-08-19T21:26:52.044Z,21.08
2022-08-19T21:28:55.196Z,21.07
2022-08-19T21:31:00.359Z,21.06
2022-08-19T21:33:04.997Z,21.06
2022-08-19T21:35:08.735Z,21.02
2022-08-19T21:37:24.666Z,20.97
2022-08-19T21:39:28.528Z,20.95
2022-08-19T21:41:31.903Z,20.98
2022-08-19T21:43:36.418Z,20.95
2022-08-19T21:45:39.583Z,20.94
2022-08-19T21:47:43.775Z,20.91
2022-08-19T21:49:47.175Z,20.83
2022-08-19T21:51:50.464Z,20.85
2022-08-19T21:53:53.634Z,20.87
2022-08-19T21:55:56.727Z,20.89
2022-08-19T21:58:00.261Z,20.90
2022-08-19T22:00:07.165Z,20.91
2022-08-19T22:02:20.103Z,20.93
2022-08-19T22:04:23.789Z,20.91
2022-08-19T22:06:29.790Z,20.92
2022-08-19T22:08:32.998Z,20.92
2022-08-19T22:10:36.308Z,20.93
2022-08-19T22:12:46.004Z,20.90
2022-08-19T22:14:54.778Z,20.88
2022-08-19T22:16:59.253Z,20.89
2022-08-19T22:19:02.350Z,20.90
2022-08-19T22:21:11.281Z,20.91
2022-08-19T22:23:15.239Z,20.93
2022-08-19T22:25:30.104Z,20.92
2022-08-19T22:27:35.358Z,20.91
2022-08-19T22:29:38.582Z,20.88
2022-08-19T22:31:42.291Z,20.87
2022-08-19T22:33:46.708Z,20.83
2022-08-19T22:35:50.070Z,20.81
2022-08-19T22:37:53.073Z,20.80
2022-08-19T22:39:56.322Z,20.79
2022-08-19T22:41:59.478Z,20.80
2022-08-19T22:44:03.816Z,20.80
2022-08-19T22:46:17.341Z,20.80
2022-08-19T22:48:24.057Z,20.79
2022-08-19T22:50:28.743Z,20.77
2022-08-19T22:52:31.553Z,20.77
2022-08-19T22:54:34.601Z,20.78
2022-08-19T22:56:37.643Z,20.76
2022-08-19T22:58:40.751Z,20.75
2022-08-19T23:00:43.900Z,20.69
2022-08-19T23:02:52.203Z,20.67
2022-08-19T23:04:56.028Z,20.63
2022-08-19T23:07:00.548Z,20.62
2022-08-19T23:09:06.689Z,20.59
2022-08-19T23:11:11.715Z,20.56
2022-08-19T23:13:17.183Z,20.53
2022-08-19T23:15:25.482Z,20.51
2022-08-19T23:17:28.572Z,20.49
2022-08-19T23:19:31.998Z,20.46
2022-08-19T23:21:36.276Z,20.42
2022-08-19T23:23:41.551Z,20.41
2022-08-19T23:25:44.656Z,20.39
2022-08-19T23:28:05.780Z,20.36
2022-08-19T23:30:28.664Z,20.33
2022-08-19T23:32:35.756Z,20.30
2022-08-19T23:34:38.805Z,20.26
2022-08-19T23:36:42.400Z,20.22
2022-08-19T23:38:48.834Z,20.19
2022-08-19T23:40:53.026Z,20.17
2022-08-19T23:42:56.227Z,20.16
2022-08-19T23:45:01.809Z,20.16
2022-08-19T23:47:07.115Z,20.14
2022-08-19T23:49:10.200Z,20.15
2022-08-19T23:51:16.391Z,20.13
2022-08-19T23:53:19.936Z,20.10
2022-08-19T23:55:26.753Z,20.06
2022-08-19T23:57:29.825Z,20.02
2022-08-19T23:59:32.899Z,19.99
